sensor_id;sensor_type;location;lat;lon;timestamp;P1;durP1;ratioP1;P2;durP2;ratioP2
24173;SDS011;12324;48.146;11.502;2022-08-21T00:01:43;0.90;;;0.65;;
24173;SDS011;12324;48.146;11.502;2022-08-21T00:04:10;1.65;;;0.60;;
24173;SDS011;12324;48.146;11.502;2022-08-21T00:06:46;0.30;;;0.30;;
24173;SDS011;12324;48.146;11.502;2022-08-21T00:09:12;0.40;;;0.40;;
24173;SDS011;12324;48.146;11.502;2022-08-21T00:11:39;0.65;;;0.65;;
24173;SDS011;12324;48.146;11.502;2022-08-21T00:14:07;0.70;;;0.70;;
24173;SDS011;12324;48.146;11.502;2022-08-21T00:16:34;0.77;;;0.77;;
24173;SDS011;12324;48.146;11.502;2022-08-21T00:19:02;0.50;;;0.47;;
24173;SDS011;12324;48.146;11.502;2022-08-21T00:21:29;1.85;;;1.05;;
24173;SDS011;12324;48.146;11.502;2022-08-21T00:23:56;0.63;;;0.63;;
24173;SDS011;12324;48.146;11.502;2022-08-21T00:26:23;0.43;;;0.43;;
24173;SDS011;12324;48.146;11.502;2022-08-21T00:28:50;0.50;;;0.50;;
24173;SDS011;12324;48.146;11.502;2022-08-21T00:31:16;0.85;;;0.73;;
24173;SDS011;12324;48.146;11.502;2022-08-21T00:33:44;0.70;;;0.70;;
24173;SDS011;12324;48.146;11.502;2022-08-21T00:36:12;0.32;;;0.32;;
24173;SDS011;12324;48.146;11.502;2022-08-21T00:38:39;0.50;;;0.50;;
24173;SDS011;12324;48.146;11.502;2022-08-21T00:41:07;0.40;;;0.40;;
24173;SDS011;12324;48.146;11.502;2022-08-21T00:43:55;0.50;;;0.50;;
24173;SDS011;12324;48.146;11.502;2022-08-21T00:46:23;0.50;;;0.50;;
24173;SDS011;12324;48.146;11.502;2022-08-21T00:48:53;1.15;;;1.05;;
24173;SDS011;12324;48.146;11.502;2022-08-21T00:51:25;0.40;;;0.40;;
24173;SDS011;12324;48.146;11.502;2022-08-21T00:54:04;0.40;;;0.40;;
24173;SDS011;12324;48.146;11.502;2022-08-21T00:56:38;0.50;;;0.50;;
24173;SDS011;12324;48.146;11.502;2022-08-21T00:59:08;0.63;;;0.63;;
24173;SDS011;12324;48.146;11.502;2022-08-21T01:01:36;0.32;;;0.32;;
24173;SDS011;12324;48.146;11.502;2022-08-21T01:04:03;1.33;;;0.80;;
24173;SDS011;12324;48.146;11.502;2022-08-21T01:06:30;0.40;;;0.40;;
24173;SDS011;12324;48.146;11.502;2022-08-21T01:08:56;0.40;;;0.40;;
24173;SDS011;12324;48.146;11.502;2022-08-21T01:11:23;1.40;;;1.30;;
24173;SDS011;12324;48.146;11.502;2022-08-21T01:13:50;0.40;;;0.40;;
24173;SDS011;12324;48.146;11.502;2022-08-21T01:16:18;0.50;;;0.50;;
24173;SDS011;12324;48.146;11.502;2022-08-21T01:18:47;0.30;;;0.30;;
24173;SDS011;12324;48.146;11.502;2022-08-21T01:21:16;0.60;;;0.60;;
24173;SDS011;12324;48.146;11.502;2022-08-21T01:23:48;0.55;;;0.55;;
24173;SDS011;12324;48.146;11.502;2022-08-21T01:26:18;0.45;;;0.45;;
24173;SDS011;12324;48.146;11.502;2022-08-21T01:29:00;0.40;;;0.40;;
24173;SDS011;12324;48.146;11.502;2022-08-21T01:31:33;0.40;;;0.40;;
24173;SDS011;12324;48.146;11.502;2022-08-21T01:34:00;1.05;;;0.93;;
24173;SDS011;12324;48.146;11.502;2022-08-21T01:36:27;0.30;;;0.30;;
24173;SDS011;12324;48.146;11.502;2022-08-21T01:38:54;0.75;;;0.75;;
24173;SDS011;12324;48.146;11.502;2022-08-21T01:41:22;0.38;;;0.38;;
24173;SDS011;12324;48.146;11.502;2022-08-21T01:43:48;0.90;;;0.88;;
24173;SDS011;12324;48.146;11.502;2022-08-21T01:46:15;0.45;;;0.45;;
24173;SDS011;12324;48.146;11.502;2022-08-21T01:48:42;0.40;;;0.40;;
24173;SDS011;12324;48.146;11.502;2022-08-21T01:51:09;0.98;;;0.93;;
24173;SDS011;12324;48.146;11.502;2022-08-21T01:53:37;0.40;;;0.40;;
24173;SDS011;12324;48.146;11.502;2022-08-21T01:56:05;0.40;;;0.40;;
24173;SDS011;12324;48.146;11.502;2022-08-21T01:58:38;0.50;;;0.50;;
24173;SDS011;12324;48.146;11.502;2022-08-21T02:01:06;0.73;;;0.73;;
24173;SDS011;12324;48.146;11.502;2022-08-21T02:03:33;0.40;;;0.40;;
24173;SDS011;12324;48.146;11.502;2022-08-21T02:06:02;0.30;;;0.30;;
24173;SDS011;12324;48.146;11.502;2022-08-21T02:08:30;2.03;;;0.75;;
24173;SDS011;12324;48.146;11.502;2022-08-21T02:10:57;0.68;;;0.68;;
24173;SDS011;12324;48.146;11.502;2022-08-21T02:13:24;0.40;;;0.40;;
24173;SDS011;12324;48.146;11.502;2022-08-21T02:15:51;0.75;;;0.73;;
24173;SDS011;12324;48.146;11.502;2022-08-21T02:18:18;0.50;;;0.50;;
24173;SDS011;12324;48.146;11.502;2022-08-21T02:20:46;0.40;;;0.40;;
24173;SDS011;12324;48.146;11.502;2022-08-21T02:23:21;0.40;;;0.40;;
24173;SDS011;12324;48.146;11.502;2022-08-21T02:25:53;1.77;;;1.30;;
24173;SDS011;12324;48.146;11.502;2022-08-21T02:28:23;0.47;;;0.47;;
24173;SDS011;12324;48.146;11.502;2022-08-21T02:30:51;0.50;;;0.50;;
24173;SDS011;12324;48.146;11.502;2022-08-21T02:33:18;0.40;;;0.40;;
24173;SDS011;12324;48.146;11.502;2022-08-21T02:35:45;0.40;;;0.40;;
24173;SDS011;12324;48.146;11.502;2022-08-21T02:38:14;0.50;;;0.50;;
24173;SDS011;12324;48.146;11.502;2022-08-21T02:40:44;1.00;;;0.73;;
24173;SDS011;12324;48.146;11.502;2022-08-21T02:43:14;0.50;;;0.50;;
24173;SDS011;12324;48.146;11.502;2022-08-21T02:45:42;1.08;;;0.68;;
24173;SDS011;12324;48.146;11.502;2022-08-21T02:48:12;0.40;;;0.40;;
24173;SDS011;12324;48.146;11.502;2022-08-21T02:50:46;0.52;;;0.52;;
24173;SDS011;12324;48.146;11.502;2022-08-21T02:53:17;0.45;;;0.45;;
24173;SDS011;12324;48.146;11.502;2022-08-21T02:55:45;0.55;;;0.55;;
24173;SDS011;12324;48.146;11.502;2022-08-21T02:58:14;0.40;;;0.40;;
24173;SDS011;12324;48.146;11.502;2022-08-21T03:00:44;0.40;;;0.40;;
24173;SDS011;12324;48.146;11.502;2022-08-21T03:03:11;0.40;;;0.40;;
24173;SDS011;12324;48.146;11.502;2022-08-21T03:05:39;0.32;;;0.32;;
24173;SDS011;12324;48.146;11.502;2022-08-21T03:08:07;0.40;;;0.40;;
24173;SDS011;12324;48.146;11.502;2022-08-21T03:10:37;0.85;;;0.75;;
24173;SDS011;12324;48.146;11.502;2022-08-21T03:13:08;0.47;;;0.47;;
24173;SDS011;12324;48.146;11.502;2022-08-21T03:15:36;0.55;;;0.55;;
24173;SDS011;12324;48.146;11.502;2022-08-21T03:18:03;0.40;;;0.40;;
24173;SDS011;12324;48.146;11.502;2022-08-21T03:20:31;0.45;;;0.45;;
24173;SDS011;12324;48.146;11.502;2022-08-21T03:22:58;0.47;;;0.47;;
24173;SDS011;12324;48.146;11.502;2022-08-21T03:25:27;0.70;;;0.70;;
24173;SDS011;12324;48.146;11.502;2022-08-21T03:28:06;0.40;;;0.40;;
24173;SDS011;12324;48.146;11.502;2022-08-21T03:30:40;0.60;;;0.60;;
24173;SDS011;12324;48.146;11.502;2022-08-21T03:33:07;0.40;;;0.40;;
24173;SDS011;12324;48.146;11.502;2022-08-21T03:35:38;0.57;;;0.57;;
24173;SDS011;12324;48.146;11.502;2022-08-21T03:38:04;0.70;;;0.70;;
24173;SDS011;12324;48.146;11.502;2022-08-21T03:40:31;0.60;;;0.60;;
24173;SDS011;12324;48.146;11.502;2022-08-21T03:42:58;0.40;;;0.40;;
24173;SDS011;12324;48.146;11.502;2022-08-21T03:45:25;1.75;;;1.25;;
24173;SDS011;12324;48.146;11.502;2022-08-21T03:47:53;0.52;;;0.52;;
24173;SDS011;12324;48.146;11.502;2022-08-21T03:50:22;0.32;;;0.32;;
24173;SDS011;12324;48.146;11.502;2022-08-21T03:52:51;0.40;;;0.40;;
24173;SDS011;12324;48.146;11.502;2022-08-21T03:55:18;0.32;;;0.32;;
24173;SDS011;12324;48.146;11.502;2022-08-21T03:57:45;0.35;;;0.35;;
24173;SDS011;12324;48.146;11.502;2022-08-21T04:00:12;0.95;;;0.82;;
24173;SDS011;12324;48.146;11.502;2022-08-21T04:02:41;0.50;;;0.50;;
24173;SDS011;12324;48.146;11.502;2022-08-21T04:05:10;0.52;;;0.52;;
24173;SDS011;12324;48.146;11.502;2022-08-21T04:07:37;0.40;;;0.40;;
24173;SDS011;12324;48.146;11.502;2022-08-21T04:10:05;1.02;;;0.95;;
24173;SDS011;12324;48.146;11.502;2022-08-21T04:12:33;0.60;;;0.60;;
24173;SDS011;12324;48.146;11.502;2022-08-21T04:14:59;0.32;;;0.32;;
24173;SDS011;12324;48.146;11.502;2022-08-21T04:17:27;0.60;;;0.60;;
24173;SDS011;12324;48.146;11.502;2022-08-21T04:19:54;0.50;;;0.50;;
24173;SDS011;12324;48.146;11.502;2022-08-21T04:22:21;0.60;;;0.60;;
24173;SDS011;12324;48.146;11.502;2022-08-21T04:24:48;0.93;;;0.85;;
24173;SDS011;12324;48.146;11.502;2022-08-21T04:27:15;0.40;;;0.40;;
24173;SDS011;12324;48.146;11.502;2022-08-21T04:29:42;0.40;;;0.40;;
24173;SDS011;12324;48.146;11.502;2022-08-21T04:32:09;0.88;;;0.60;;
24173;SDS011;12324;48.146;11.502;2022-08-21T04:34:35;0.45;;;0.45;;
24173;SDS011;12324;48.146;11.502;2022-08-21T04:37:03;1.48;;;1.38;;
24173;SDS011;12324;48.146;11.502;2022-08-21T04:39:30;0.43;;;0.43;;
24173;SDS011;12324;48.146;11.502;2022-08-21T04:41:57;0.43;;;0.35;;
24173;SDS011;12324;48.146;11.502;2022-08-21T04:44:24;1.08;;;0.75;;
24173;SDS011;12324;48.146;11.502;2022-08-21T04:46:50;0.55;;;0.55;;
24173;SDS011;12324;48.146;11.502;2022-08-21T04:49:17;0.50;;;0.50;;
24173;SDS011;12324;48.146;11.502;2022-08-21T04:51:44;0.52;;;0.52;;
24173;SDS011;12324;48.146;11.502;2022-08-21T04:54:20;0.50;;;0.50;;
24173;SDS011;12324;48.146;11.502;2022-08-21T04:56:49;0.75;;;0.75;;
24173;SDS011;12324;48.146;11.502;2022-08-21T04:59:20;0.63;;;0.63;;
24173;SDS011;12324;48.146;11.502;2022-08-21T05:01:52;1.33;;;0.98;;
24173;SDS011;12324;48.146;11.502;2022-08-21T05:04:25;0.80;;;0.80;;
24173;SDS011;12324;48.146;11.502;2022-08-21T05:06:56;0.52;;;0.52;;
24173;SDS011;12324;48.146;11.502;2022-08-21T05:09:26;0.55;;;0.55;;
24173;SDS011;12324;48.146;11.502;2022-08-21T05:11:53;0.45;;;0.45;;
24173;SDS011;12324;48.146;11.502;2022-08-21T05:14:21;0.63;;;0.55;;
24173;SDS011;12324;48.146;11.502;2022-08-21T05:16:48;0.40;;;0.40;;
24173;SDS011;12324;48.146;11.502;2022-08-21T05:19:14;0.57;;;0.57;;
24173;SDS011;12324;48.146;11.502;2022-08-21T05:21:42;1.25;;;0.80;;
24173;SDS011;12324;48.146;11.502;2022-08-21T05:24:10;0.40;;;0.40;;
24173;SDS011;12324;48.146;11.502;2022-08-21T05:26:37;0.40;;;0.40;;
24173;SDS011;12324;48.146;11.502;2022-08-21T05:29:12;0.40;;;0.40;;
24173;SDS011;12324;48.146;11.502;2022-08-21T05:31:41;0.40;;;0.40;;
24173;SDS011;12324;48.146;11.502;2022-08-21T05:34:08;0.43;;;0.43;;
24173;SDS011;12324;48.146;11.502;2022-08-21T05:36:35;0.50;;;0.50;;
24173;SDS011;12324;48.146;11.502;2022-08-21T05:39:02;1.92;;;1.35;;
24173;SDS011;12324;48.146;11.502;2022-08-21T05:41:29;2.08;;;0.80;;
24173;SDS011;12324;48.146;11.502;2022-08-21T05:43:59;0.40;;;0.40;;
24173;SDS011;12324;48.146;11.502;2022-08-21T05:46:26;1.23;;;0.85;;
24173;SDS011;12324;48.146;11.502;2022-08-21T05:48:52;0.40;;;0.40;;
24173;SDS011;12324;48.146;11.502;2022-08-21T05:51:19;7.43;;;2.28;;
24173;SDS011;12324;48.146;11.502;2022-08-21T05:53:46;0.40;;;0.40;;
24173;SDS011;12324;48.146;11.502;2022-08-21T05:56:13;0.45;;;0.45;;
24173;SDS011;12324;48.146;11.502;2022-08-21T05:58:41;0.50;;;0.50;;
24173;SDS011;12324;48.146;11.502;2022-08-21T06:01:08;0.80;;;0.73;;
24173;SDS011;12324;48.146;11.502;2022-08-21T06:03:36;0.40;;;0.40;;
24173;SDS011;12324;48.146;11.502;2022-08-21T06:06:05;0.40;;;0.40;;
24173;SDS011;12324;48.146;11.502;2022-08-21T06:08:32;0.55;;;0.55;;
24173;SDS011;12324;48.146;11.502;2022-08-21T06:11:00;0.60;;;0.57;;
24173;SDS011;12324;48.146;11.502;2022-08-21T06:13:28;0.40;;;0.40;;
24173;SDS011;12324;48.146;11.502;2022-08-21T06:16:02;0.40;;;0.40;;
24173;SDS011;12324;48.146;11.502;2022-08-21T06:18:31;0.50;;;0.50;;
24173;SDS011;12324;48.146;11.502;2022-08-21T06:20:58;0.50;;;0.50;;
24173;SDS011;12324;48.146;11.502;2022-08-21T06:23:26;0.50;;;0.50;;
24173;SDS011;12324;48.146;11.502;2022-08-21T06:25:58;0.40;;;0.40;;
24173;SDS011;12324;48.146;11.502;2022-08-21T06:28:25;0.30;;;0.30;;
24173;SDS011;12324;48.146;11.502;2022-08-21T06:30:52;6.60;;;2.72;;
24173;SDS011;12324;48.146;11.502;2022-08-21T06:33:20;0.85;;;0.80;;
24173;SDS011;12324;48.146;11.502;2022-08-21T06:35:47;0.40;;;0.40;;
24173;SDS011;12324;48.146;11.502;2022-08-21T06:38:14;0.47;;;0.47;;
24173;SDS011;12324;48.146;11.502;2022-08-21T06:40:41;1.45;;;0.85;;
24173;SDS011;12324;48.146;11.502;2022-08-21T06:43:14;1.55;;;0.90;;
24173;SDS011;12324;48.146;11.502;2022-08-21T06:45:42;0.60;;;0.60;;
24173;SDS011;12324;48.146;11.502;2022-08-21T06:48:09;0.70;;;0.70;;
24173;SDS011;12324;48.146;11.502;2022-08-21T06:53:11;2.38;;;0.77;;
24173;SDS011;12324;48.146;11.502;2022-08-21T06:55:39;0.30;;;0.30;;
24173;SDS011;12324;48.146;11.502;2022-08-21T06:58:08;1.15;;;0.70;;
24173;SDS011;12324;48.146;11.502;2022-08-21T07:00:38;0.40;;;0.40;;
24173;SDS011;12324;48.146;11.502;2022-08-21T07:03:05;0.73;;;0.73;;
24173;SDS011;12324;48.146;11.502;2022-08-21T07:05:33;0.50;;;0.50;;
24173;SDS011;12324;48.146;11.502;2022-08-21T07:08:00;4.53;;;0.80;;
24173;SDS011;12324;48.146;11.502;2022-08-21T07:10:27;0.50;;;0.50;;
24173;SDS011;12324;48.146;11.502;2022-08-21T07:12:54;5.63;;;2.25;;
24173;SDS011;12324;48.146;11.502;2022-08-21T07:15:26;2.17;;;0.98;;
24173;SDS011;12324;48.146;11.502;2022-08-21T07:17:55;2.42;;;1.85;;
24173;SDS011;12324;48.146;11.502;2022-08-21T07:20:23;0.57;;;0.57;;
24173;SDS011;12324;48.146;11.502;2022-08-21T07:22:50;0.70;;;0.60;;
24173;SDS011;12324;48.146;11.502;2022-08-21T07:25:17;0.35;;;0.35;;
24173;SDS011;12324;48.146;11.502;2022-08-21T07:27:44;0.40;;;0.40;;
24173;SDS011;12324;48.146;11.502;2022-08-21T07:30:11;0.50;;;0.50;;
24173;SDS011;12324;48.146;11.502;2022-08-21T07:32:39;0.60;;;0.60;;
24173;SDS011;12324;48.146;11.502;2022-08-21T07:35:06;3.63;;;2.05;;
24173;SDS011;12324;48.146;11.502;2022-08-21T07:37:33;0.70;;;0.70;;
24173;SDS011;12324;48.146;11.502;2022-08-21T07:40:01;0.95;;;0.50;;
24173;SDS011;12324;48.146;11.502;2022-08-21T07:42:28;0.40;;;0.40;;
24173;SDS011;12324;48.146;11.502;2022-08-21T07:44:56;0.85;;;0.85;;
24173;SDS011;12324;48.146;11.502;2022-08-21T07:47:23;0.47;;;0.47;;
24173;SDS011;12324;48.146;11.502;2022-08-21T07:50:07;0.60;;;0.60;;
24173;SDS011;12324;48.146;11.502;2022-08-21T07:52:35;1.33;;;0.77;;
24173;SDS011;12324;48.146;11.502;2022-08-21T07:55:03;0.68;;;0.68;;
24173;SDS011;12324;48.146;11.502;2022-08-21T07:57:32;0.82;;;0.80;;
24173;SDS011;12324;48.146;11.502;2022-08-21T07:59:59;0.30;;;0.30;;
24173;SDS011;12324;48.146;11.502;2022-08-21T08:02:27;0.52;;;0.52;;
24173;SDS011;12324;48.146;11.502;2022-08-21T08:04:58;0.98;;;0.52;;
24173;SDS011;12324;48.146;11.502;2022-08-21T08:07:25;1.95;;;0.88;;
24173;SDS011;12324;48.146;11.502;2022-08-21T08:09:52;0.40;;;0.40;;
24173;SDS011;12324;48.146;11.502;2022-08-21T08:12:19;0.45;;;0.45;;
24173;SDS011;12324;48.146;11.502;2022-08-21T08:14:46;0.70;;;0.70;;
24173;SDS011;12324;48.146;11.502;2022-08-21T08:17:13;0.30;;;0.30;;
24173;SDS011;12324;48.146;11.502;2022-08-21T08:19:41;1.15;;;1.05;;
24173;SDS011;12324;48.146;11.502;2022-08-21T08:22:14;3.10;;;1.15;;
24173;SDS011;12324;48.146;11.502;2022-08-21T08:24:42;1.52;;;1.33;;
24173;SDS011;12324;48.146;11.502;2022-08-21T08:27:09;0.30;;;0.30;;
24173;SDS011;12324;48.146;11.502;2022-08-21T08:29:36;0.40;;;0.40;;
24173;SDS011;12324;48.146;11.502;2022-08-21T08:32:03;0.50;;;0.50;;
24173;SDS011;12324;48.146;11.502;2022-08-21T08:34:33;0.50;;;0.50;;
24173;SDS011;12324;48.146;11.502;2022-08-21T08:37:00;1.17;;;1.08;;
24173;SDS011;12324;48.146;11.502;2022-08-21T08:39:31;1.20;;;1.05;;
24173;SDS011;12324;48.146;11.502;2022-08-21T08:42:02;0.70;;;0.70;;
24173;SDS011;12324;48.146;11.502;2022-08-21T08:44:53;0.45;;;0.45;;
24173;SDS011;12324;48.146;11.502;2022-08-21T08:47:22;1.33;;;1.02;;
24173;SDS011;12324;48.146;11.502;2022-08-21T08:52:31;12.35;;;1.55;;
24173;SDS011;12324;48.146;11.502;2022-08-21T08:55:17;0.60;;;0.60;;
24173;SDS011;12324;48.146;11.502;2022-08-21T08:57:48;0.63;;;0.63;;
24173;SDS011;12324;48.146;11.502;2022-08-21T09:00:17;0.40;;;0.40;;
24173;SDS011;12324;48.146;11.502;2022-08-21T09:02:45;0.50;;;0.50;;
24173;SDS011;12324;48.146;11.502;2022-08-21T09:05:19;1.05;;;0.95;;
24173;SDS011;12324;48.146;11.502;2022-08-21T09:10:38;0.45;;;0.45;;
24173;SDS011;12324;48.146;11.502;2022-08-21T09:18:36;1.13;;;1.02;;
24173;SDS011;12324;48.146;11.502;2022-08-21T09:28:39;0.50;;;0.50;;
24173;SDS011;12324;48.146;11.502;2022-08-21T09:31:08;1.35;;;1.15;;
24173;SDS011;12324;48.146;11.502;2022-08-21T09:33:38;1.42;;;0.73;;
24173;SDS011;12324;48.146;11.502;2022-08-21T09:36:05;1.02;;;0.73;;
24173;SDS011;12324;48.146;11.502;2022-08-21T09:38:34;0.73;;;0.73;;
24173;SDS011;12324;48.146;11.502;2022-08-21T09:41:07;0.40;;;0.40;;
24173;SDS011;12324;48.146;11.502;2022-08-21T09:43:35;1.10;;;1.00;;
24173;SDS011;12324;48.146;11.502;2022-08-21T09:46:19;0.40;;;0.40;;
24173;SDS011;12324;48.146;11.502;2022-08-21T09:48:48;8.02;;;3.22;;
24173;SDS011;12324;48.146;11.502;2022-08-21T09:51:23;4.57;;;2.72;;
24173;SDS011;12324;48.146;11.502;2022-08-21T09:53:51;8.10;;;3.15;;
24173;SDS011;12324;48.146;11.502;2022-08-21T09:56:20;4.57;;;2.70;;
24173;SDS011;12324;48.146;11.502;2022-08-21T09:59:41;4.65;;;2.72;;
24173;SDS011;12324;48.146;11.502;2022-08-21T10:04:52;3.38;;;2.25;;
24173;SDS011;12324;48.146;11.502;2022-08-21T10:07:21;5.35;;;2.83;;
24173;SDS011;12324;48.146;11.502;2022-08-21T10:09:58;4.20;;;2.63;;
24173;SDS011;12324;48.146;11.502;2022-08-21T10:12:29;8.15;;;2.90;;
24173;SDS011;12324;48.146;11.502;2022-08-21T10:15:02;4.53;;;2.60;;
24173;SDS011;12324;48.146;11.502;2022-08-21T10:20:07;6.55;;;3.10;;
24173;SDS011;12324;48.146;11.502;2022-08-21T10:25:31;4.63;;;2.53;;
24173;SDS011;12324;48.146;11.502;2022-08-21T10:28:07;6.10;;;2.95;;
24173;SDS011;12324;48.146;11.502;2022-08-21T10:31:23;5.18;;;2.50;;
24173;SDS011;12324;48.146;11.502;2022-08-21T10:33:38;5.72;;;3.03;;
24173;SDS011;12324;48.146;11.502;2022-08-21T10:47:08;7.97;;;3.55;;
24173;SDS011;12324;48.146;11.502;2022-08-21T11:00:00;8.50;;;4.18;;
24173;SDS011;12324;48.146;11.502;2022-08-21T11:02:31;4.00;;;2.83;;
24173;SDS011;12324;48.146;11.502;2022-08-21T11:05:01;6.55;;;3.33;;
24173;SDS011;12324;48.146;11.502;2022-08-21T11:07:34;7.07;;;2.80;;
24173;SDS011;12324;48.146;11.502;2022-08-21T11:16:05;6.00;;;2.70;;
24173;SDS011;12324;48.146;11.502;2022-08-21T11:18:34;4.63;;;2.67;;
24173;SDS011;12324;48.146;11.502;2022-08-21T11:23:37;5.85;;;2.90;;
24173;SDS011;12324;48.146;11.502;2022-08-21T11:26:07;7.50;;;3.40;;
24173;SDS011;12324;48.146;11.502;2022-08-21T11:28:38;5.30;;;2.95;;
24173;SDS011;12324;48.146;11.502;2022-08-21T11:38:53;3.55;;;2.50;;
24173;SDS011;12324;48.146;11.502;2022-08-21T11:41:43;5.40;;;2.78;;
24173;SDS011;12324;48.146;11.502;2022-08-21T11:44:28;5.30;;;2.58;;
24173;SDS011;12324;48.146;11.502;2022-08-21T11:47:12;6.47;;;2.92;;
24173;SDS011;12324;48.146;11.502;2022-08-21T11:56:06;4.05;;;2.20;;
24173;SDS011;12324;48.146;11.502;2022-08-21T11:58:27;3.08;;;1.80;;
24173;SDS011;12324;48.146;11.502;2022-08-21T12:00:58;4.47;;;2.30;;
24173;SDS011;12324;48.146;11.502;2022-08-21T12:03:36;3.80;;;2.28;;
24173;SDS011;12324;48.146;11.502;2022-08-21T12:06:09;4.82;;;2.40;;
24173;SDS011;12324;48.146;11.502;2022-08-21T12:08:41;3.03;;;2.25;;
24173;SDS011;12324;48.146;11.502;2022-08-21T12:13:37;3.65;;;2.15;;
24173;SDS011;12324;48.146;11.502;2022-08-21T12:18:35;3.00;;;2.03;;
24173;SDS011;12324;48.146;11.502;2022-08-21T12:21:05;3.72;;;2.28;;
24173;SDS011;12324;48.146;11.502;2022-08-21T12:24:02;3.95;;;2.00;;
24173;SDS011;12324;48.146;11.502;2022-08-21T12:26:32;2.97;;;2.28;;
24173;SDS011;12324;48.146;11.502;2022-08-21T12:29:14;2.60;;;1.95;;
24173;SDS011;12324;48.146;11.502;2022-08-21T12:34:37;4.47;;;2.22;;
24173;SDS011;12324;48.146;11.502;2022-08-21T12:37:14;4.40;;;2.17;;
24173;SDS011;12324;48.146;11.502;2022-08-21T12:39:43;4.07;;;2.17;;
24173;SDS011;12324;48.146;11.502;2022-08-21T12:45:03;4.18;;;1.85;;
24173;SDS011;12324;48.146;11.502;2022-08-21T12:47:32;4.85;;;2.20;;
24173;SDS011;12324;48.146;11.502;2022-08-21T12:50:03;3.67;;;2.13;;
24173;SDS011;12324;48.146;11.502;2022-08-21T12:55:05;2.92;;;2.20;;
24173;SDS011;12324;48.146;11.502;2022-08-21T12:57:35;3.60;;;2.00;;
24173;SDS011;12324;48.146;11.502;2022-08-21T13:00:05;3.97;;;2.00;;
24173;SDS011;12324;48.146;11.502;2022-08-21T13:02:38;7.10;;;2.55;;
24173;SDS011;12324;48.146;11.502;2022-08-21T13:05:12;5.28;;;2.30;;
24173;SDS011;12324;48.146;11.502;2022-08-21T13:07:46;3.70;;;2.28;;
24173;SDS011;12324;48.146;11.502;2022-08-21T13:10:16;6.82;;;2.13;;
24173;SDS011;12324;48.146;11.502;2022-08-21T13:12:44;2.95;;;2.00;;
24173;SDS011;12324;48.146;11.502;2022-08-21T13:15:11;4.60;;;2.15;;
24173;SDS011;12324;48.146;11.502;2022-08-21T13:17:41;3.83;;;2.10;;
24173;SDS011;12324;48.146;11.502;2022-08-21T13:20:23;3.35;;;2.08;;
24173;SDS011;12324;48.146;11.502;2022-08-21T13:22:53;3.47;;;1.98;;
24173;SDS011;12324;48.146;11.502;2022-08-21T13:25:21;3.42;;;1.98;;
24173;SDS011;12324;48.146;11.502;2022-08-21T13:28:12;3.67;;;2.13;;
24173;SDS011;12324;48.146;11.502;2022-08-21T13:30:42;4.10;;;2.03;;
24173;SDS011;12324;48.146;11.502;2022-08-21T13:33:12;5.38;;;2.97;;
24173;SDS011;12324;48.146;11.502;2022-08-21T13:38:27;2.85;;;1.55;;
24173;SDS011;12324;48.146;11.502;2022-08-21T13:41:31;2.42;;;1.65;;
24173;SDS011;12324;48.146;11.502;2022-08-21T13:43:55;4.43;;;1.95;;
24173;SDS011;12324;48.146;11.502;2022-08-21T13:46:24;2.13;;;1.67;;
24173;SDS011;12324;48.146;11.502;2022-08-21T13:48:51;6.50;;;2.55;;
24173;SDS011;12324;48.146;11.502;2022-08-21T13:51:20;3.63;;;1.92;;
24173;SDS011;12324;48.146;11.502;2022-08-21T13:53:49;5.85;;;2.20;;
24173;SDS011;12324;48.146;11.502;2022-08-21T13:56:22;3.10;;;2.08;;
24173;SDS011;12324;48.146;11.502;2022-08-21T13:58:50;2.95;;;1.95;;
24173;SDS011;12324;48.146;11.502;2022-08-21T14:01:22;4.78;;;2.53;;
24173;SDS011;12324;48.146;11.502;2022-08-21T14:03:50;3.28;;;2.00;;
24173;SDS011;12324;48.146;11.502;2022-08-21T14:06:20;3.28;;;2.05;;
24173;SDS011;12324;48.146;11.502;2022-08-21T14:08:52;2.90;;;1.95;;
24173;SDS011;12324;48.146;11.502;2022-08-21T14:11:20;3.92;;;2.22;;
24173;SDS011;12324;48.146;11.502;2022-08-21T14:13:56;3.17;;;1.65;;
24173;SDS011;12324;48.146;11.502;2022-08-21T14:16:25;3.60;;;1.92;;
24173;SDS011;12324;48.146;11.502;2022-08-21T14:18:54;3.28;;;2.00;;
24173;SDS011;12324;48.146;11.502;2022-08-21T14:21:39;3.33;;;2.22;;
24173;SDS011;12324;48.146;11.502;2022-08-21T14:24:11;2.88;;;1.88;;
24173;SDS011;12324;48.146;11.502;2022-08-21T14:26:46;3.92;;;2.10;;
24173;SDS011;12324;48.146;11.502;2022-08-21T14:29:19;3.60;;;1.88;;
24173;SDS011;12324;48.146;11.502;2022-08-21T14:31:57;3.72;;;2.10;;
24173;SDS011;12324;48.146;11.502;2022-08-21T14:34:26;4.22;;;2.50;;
24173;SDS011;12324;48.146;11.502;2022-08-21T14:37:01;7.07;;;2.28;;
24173;SDS011;12324;48.146;11.502;2022-08-21T14:39:27;4.30;;;2.00;;
24173;SDS011;12324;48.146;11.502;2022-08-21T14:41:54;6.20;;;2.67;;
24173;SDS011;12324;48.146;11.502;2022-08-21T14:44:23;6.40;;;2.38;;
24173;SDS011;12324;48.146;11.502;2022-08-21T14:46:50;4.65;;;2.53;;
24173;SDS011;12324;48.146;11.502;2022-08-21T14:49:22;2.45;;;1.77;;
24173;SDS011;12324;48.146;11.502;2022-08-21T14:51:52;3.63;;;2.15;;
24173;SDS011;12324;48.146;11.502;2022-08-21T14:54:26;3.58;;;2.42;;
24173;SDS011;12324;48.146;11.502;2022-08-21T14:56:57;6.15;;;2.25;;
24173;SDS011;12324;48.146;11.502;2022-08-21T14:59:25;4.00;;;2.30;;
24173;SDS011;12324;48.146;11.502;2022-08-21T15:01:52;5.80;;;3.00;;
24173;SDS011;12324;48.146;11.502;2022-08-21T15:04:19;4.95;;;2.50;;
24173;SDS011;12324;48.146;11.502;2022-08-21T15:06:46;5.03;;;2.70;;
24173;SDS011;12324;48.146;11.502;2022-08-21T15:09:13;4.70;;;2.50;;
24173;SDS011;12324;48.146;11.502;2022-08-21T15:11:40;6.20;;;2.50;;
24173;SDS011;12324;48.146;11.502;2022-08-21T15:14:09;9.65;;;2.95;;
24173;SDS011;12324;48.146;11.502;2022-08-21T15:16:37;5.05;;;2.05;;
24173;SDS011;12324;48.146;11.502;2022-08-21T15:19:05;3.42;;;2.10;;
24173;SDS011;12324;48.146;11.502;2022-08-21T15:21:32;3.15;;;2.05;;
24173;SDS011;12324;48.146;11.502;2022-08-21T15:23:59;4.55;;;2.40;;
24173;SDS011;12324;48.146;11.502;2022-08-21T15:26:26;5.60;;;2.40;;
24173;SDS011;12324;48.146;11.502;2022-08-21T15:28:53;4.72;;;2.53;;
24173;SDS011;12324;48.146;11.502;2022-08-21T15:31:20;4.60;;;2.08;;
24173;SDS011;12324;48.146;11.502;2022-08-21T15:33:47;4.47;;;2.38;;
24173;SDS011;12324;48.146;11.502;2022-08-21T15:36:14;6.35;;;2.95;;
24173;SDS011;12324;48.146;11.502;2022-08-21T15:38:42;5.57;;;2.53;;
24173;SDS011;12324;48.146;11.502;2022-08-21T15:41:09;4.65;;;2.45;;
24173;SDS011;12324;48.146;11.502;2022-08-21T15:43:41;3.53;;;2.13;;
24173;SDS011;12324;48.146;11.502;2022-08-21T15:46:09;4.55;;;2.30;;
24173;SDS011;12324;48.146;11.502;2022-08-21T15:48:38;5.53;;;2.38;;
24173;SDS011;12324;48.146;11.502;2022-08-21T15:51:05;3.63;;;2.30;;
24173;SDS011;12324;48.146;11.502;2022-08-21T15:53:33;5.78;;;2.63;;
24173;SDS011;12324;48.146;11.502;2022-08-21T15:56:05;6.10;;;2.25;;
24173;SDS011;12324;48.146;11.502;2022-08-21T15:58:32;4.18;;;2.35;;
24173;SDS011;12324;48.146;11.502;2022-08-21T16:01:00;4.55;;;2.20;;
24173;SDS011;12324;48.146;11.502;2022-08-21T16:03:28;5.80;;;2.60;;
24173;SDS011;12324;48.146;11.502;2022-08-21T16:05:55;4.00;;;2.50;;
24173;SDS011;12324;48.146;11.502;2022-08-21T16:08:23;6.70;;;2.70;;
24173;SDS011;12324;48.146;11.502;2022-08-21T16:10:51;3.33;;;2.10;;
24173;SDS011;12324;48.146;11.502;2022-08-21T16:13:23;6.65;;;2.35;;
24173;SDS011;12324;48.146;11.502;2022-08-21T16:15:51;6.55;;;2.47;;
24173;SDS011;12324;48.146;11.502;2022-08-21T16:18:19;4.28;;;2.47;;